createdAt,value
2019-04-25T00:01:57.039Z,13.23
2019-04-25T00:04:25.765Z,12.73
2019-04-25T00:06:54.695Z,12.87
2019-04-25T00:09:25.930Z,12.10
2019-04-25T00:11:54.651Z,13.10
2019-04-25T00:14:23.790Z,12.90
2019-04-25T00:16:53.459Z,14.00
2019-04-25T00:19:22.189Z,13.50
2019-04-25T00:22:08.784Z,14.83
2019-04-25T00:24:43.279Z,14.97
2019-04-25T00:27:12.635Z,14.30
2019-04-25T00:29:43.950Z,14.60
2019-04-25T00:32:12.740Z,14.97
2019-04-25T00:34:44.234Z,14.33
2019-04-25T00:37:13.999Z,16.80
2019-04-25T00:39:44.746Z,27.03
2019-04-25T00:42:13.288Z,19.03
2019-04-25T00:44:44.550Z,16.50
2019-04-25T00:47:12.504Z,17.23
2019-04-25T00:49:43.055Z,15.50
2019-04-25T00:52:12.252Z,15.80
2019-04-25T00:54:41.454Z,15.90
2019-04-25T00:57:12.174Z,15.67
2019-04-25T00:59:44.320Z,16.13
2019-04-25T01:02:15.692Z,16.57
2019-04-25T01:04:45.173Z,16.03
2019-04-25T01:07:14.139Z,16.20
2019-04-25T01:09:43.479Z,16.43
2019-04-25T01:12:14.866Z,16.17
2019-04-25T01:14:44.269Z,16.40
2019-04-25T01:17:14.169Z,16.40
2019-04-25T01:19:44.929Z,17.33
2019-04-25T01:22:15.337Z,16.30
2019-04-25T01:24:44.095Z,16.87
2019-04-25T01:27:13.543Z,16.03
2019-04-25T01:29:42.465Z,17.40
2019-04-25T01:32:13.970Z,16.00
2019-04-25T01:34:44.433Z,17.13
2019-04-25T01:37:15.615Z,19.10
2019-04-25T01:39:51.950Z,19.07
2019-04-25T01:42:28.171Z,19.27
2019-04-25T01:44:58.007Z,16.80
2019-04-25T01:47:27.346Z,15.93
2019-04-25T01:49:56.969Z,17.13
2019-04-25T01:52:25.692Z,15.63
2019-04-25T01:54:55.780Z,15.63
2019-04-25T01:57:25.005Z,14.30
2019-04-25T01:59:55.022Z,15.17
2019-04-25T02:02:25.705Z,15.10
2019-04-25T02:04:56.842Z,15.87
2019-04-25T02:07:24.927Z,15.60
2019-04-25T02:09:54.828Z,14.70
2019-04-25T02:12:25.607Z,15.90
2019-04-25T02:14:55.503Z,16.43
2019-04-25T02:17:24.937Z,16.20
2019-04-25T02:19:56.605Z,17.23
2019-04-25T02:22:25.452Z,16.27
2019-04-25T02:24:55.675Z,17.10
2019-04-25T02:27:24.806Z,17.80
2019-04-25T02:29:55.851Z,16.40
2019-04-25T02:32:24.858Z,16.17
2019-04-25T02:35:00.585Z,16.60
2019-04-25T02:37:27.471Z,16.30
2019-04-25T02:39:59.721Z,16.77
2019-04-25T02:42:26.823Z,16.47
2019-04-25T02:45:09.284Z,17.63
2019-04-25T02:47:57.759Z,17.37
2019-04-25T02:50:31.079Z,17.40
2019-04-25T02:53:06.134Z,15.80
2019-04-25T02:55:37.587Z,17.33
2019-04-25T02:58:10.013Z,16.07
2019-04-25T03:00:51.717Z,15.37
2019-04-25T03:03:08.344Z,17.00
2019-04-25T03:05:37.377Z,15.30
2019-04-25T03:08:09.973Z,16.07
2019-04-25T03:10:36.906Z,16.07
2019-04-25T03:13:11.228Z,16.20
2019-04-25T03:15:36.574Z,16.73
2019-04-25T03:18:10.347Z,16.47
2019-04-25T03:20:45.176Z,18.00
2019-04-25T03:23:15.660Z,18.93
2019-04-25T03:25:44.497Z,19.23
2019-04-25T03:28:15.639Z,18.57
2019-04-25T03:30:45.038Z,18.57
2019-04-25T03:33:19.279Z,19.33
2019-04-25T03:35:45.303Z,19.13
2019-04-25T03:38:14.485Z,20.17
2019-04-25T03:40:43.933Z,20.63
2019-04-25T03:43:14.850Z,21.23
2019-04-25T03:45:46.381Z,22.67
2019-04-25T03:48:15.111Z,21.57
2019-04-25T03:50:44.196Z,23.10
2019-04-25T03:53:13.927Z,23.57
2019-04-25T03:55:44.354Z,22.60
2019-04-25T03:58:14.653Z,22.70
2019-04-25T04:00:44.727Z,21.80
2019-04-25T04:03:14.931Z,23.60
2019-04-25T04:05:44.227Z,24.60
2019-04-25T04:08:14.854Z,24.80
2019-04-25T04:10:43.451Z,26.90
2019-04-25T04:13:12.341Z,24.63
2019-04-25T04:15:41.052Z,23.47
2019-04-25T04:18:16.295Z,23.97
2019-04-25T04:20:49.199Z,21.90
2019-04-25T04:23:19.505Z,21.77
2019-04-25T04:25:48.228Z,23.33
2019-04-25T04:28:17.131Z,22.63
2019-04-25T04:30:45.854Z,22.30
2019-04-25T04:33:25.712Z,20.47
2019-04-25T04:35:45.320Z,19.07
2019-04-25T04:38:15.051Z,17.73
2019-04-25T04:40:44.323Z,16.07
2019-04-25T04:43:15.360Z,17.57
2019-04-25T04:45:45.634Z,17.67
2019-04-25T04:48:15.496Z,16.53
2019-04-25T04:50:44.561Z,16.30
2019-04-25T04:53:14.961Z,15.27
2019-04-25T04:55:43.739Z,14.17
2019-04-25T04:58:14.335Z,14.83
2019-04-25T05:00:43.772Z,13.87
2019-04-25T05:03:30.721Z,13.77
2019-04-25T05:06:01.019Z,14.23
2019-04-25T05:08:34.114Z,12.47
2019-04-25T05:11:04.027Z,11.73
2019-04-25T05:13:34.211Z,11.43
2019-04-25T05:16:03.230Z,9.70
2019-04-25T05:18:38.052Z,10.57
2019-04-25T05:21:04.163Z,9.73
2019-04-25T05:23:34.388Z,9.23
2019-04-25T05:26:04.740Z,9.17
2019-04-25T05:28:33.521Z,8.70
2019-04-25T05:31:10.064Z,8.43
2019-04-25T05:33:38.790Z,8.03
2019-04-25T05:36:07.571Z,7.83
2019-04-25T05:38:36.443Z,8.10
2019-04-25T05:41:06.745Z,9.13
2019-04-25T05:43:35.469Z,8.67
2019-04-25T05:46:04.462Z,8.57
2019-04-25T05:48:34.017Z,11.53
2019-04-25T05:51:03.896Z,7.93
2019-04-25T05:53:33.352Z,9.13
2019-04-25T05:56:04.033Z,10.13
2019-04-25T05:58:33.734Z,9.07
2019-04-25T06:01:03.383Z,9.40
2019-04-25T06:03:33.825Z,8.57
2019-04-25T06:06:03.365Z,9.97
2019-04-25T06:08:34.234Z,9.20
2019-04-25T06:11:10.360Z,9.93
2019-04-25T06:13:40.886Z,8.80
2019-04-25T06:16:11.181Z,10.30
2019-04-25T06:19:11.294Z,10.00
2019-04-25T06:21:29.307Z,10.93
2019-04-25T06:24:15.441Z,10.73
2019-04-25T06:26:46.438Z,11.60
2019-04-25T06:29:15.169Z,11.00
2019-04-25T06:31:43.997Z,9.67
2019-04-25T06:34:14.078Z,10.43
2019-04-25T06:36:44.058Z,10.13
2019-04-25T06:39:14.180Z,9.40
2019-04-25T06:41:44.177Z,9.33
2019-04-25T06:44:14.603Z,9.67
2019-04-25T06:47:03.446Z,9.13
2019-04-25T06:49:36.495Z,8.47
2019-04-25T06:52:04.282Z,8.83
2019-04-25T06:54:33.545Z,8.20
2019-04-25T06:57:04.531Z,8.77
2019-04-25T06:59:34.481Z,7.70
2019-04-25T07:02:04.199Z,7.83
2019-04-25T07:04:34.543Z,8.87
2019-04-25T07:07:10.488Z,8.50
2019-04-25T07:09:35.961Z,8.00
2019-04-25T07:12:05.092Z,8.40
2019-04-25T07:14:36.674Z,8.20
2019-04-25T07:17:04.527Z,9.10
2019-04-25T07:19:34.297Z,8.33
2019-04-25T07:22:04.047Z,8.17
2019-04-25T07:24:35.025Z,7.60
2019-04-25T07:27:10.834Z,8.23
2019-04-25T07:29:44.106Z,8.40
2019-04-25T07:32:20.292Z,8.70
2019-04-25T07:34:50.262Z,7.33
2019-04-25T07:37:18.984Z,7.17
2019-04-25T07:39:47.712Z,7.73
2019-04-25T07:42:16.634Z,7.43
2019-04-25T07:44:52.221Z,7.73
2019-04-25T07:47:16.074Z,7.47
2019-04-25T07:49:44.930Z,7.77
2019-04-25T07:52:13.693Z,8.10
2019-04-25T07:54:43.923Z,7.90
2019-04-25T07:57:13.512Z,7.30
2019-04-25T07:59:43.624Z,10.13
2019-04-25T08:02:13.380Z,7.40
2019-04-25T08:04:44.215Z,7.80
2019-04-25T08:07:14.249Z,8.53
2019-04-25T08:09:44.283Z,8.07
2019-04-25T08:12:13.426Z,7.60
2019-04-25T08:14:45.860Z,8.37
2019-04-25T08:17:18.755Z,8.00
2019-04-25T08:19:48.047Z,7.73
2019-04-25T08:22:16.964Z,7.60
2019-04-25T08:24:46.263Z,8.57
2019-04-25T08:27:15.000Z,8.17
2019-04-25T08:29:45.514Z,7.57
2019-04-25T08:32:14.369Z,8.27
2019-04-25T08:34:44.647Z,8.47
2019-04-25T08:37:20.339Z,7.80
2019-04-25T08:39:45.112Z,7.87
2019-04-25T08:42:14.780Z,8.47
2019-04-25T08:44:44.908Z,7.20
2019-04-25T08:47:14.678Z,7.40
2019-04-25T08:49:45.992Z,9.47
2019-04-25T08:52:14.933Z,10.00
2019-04-25T08:54:51.242Z,8.37
2019-04-25T08:57:21.533Z,7.57
2019-04-25T08:59:55.576Z,8.13
2019-04-25T09:02:44.647Z,8.00
2019-04-25T09:05:26.996Z,8.67
2019-04-25T09:07:56.855Z,8.20
2019-04-25T09:10:25.584Z,8.07
2019-04-25T09:12:54.313Z,9.70
2019-04-25T09:15:24.169Z,7.60
2019-04-25T09:17:54.702Z,8.67
2019-04-25T09:20:23.666Z,7.30
2019-04-25T09:22:54.116Z,7.50
2019-04-25T09:25:23.817Z,8.67
2019-04-25T09:27:54.376Z,7.60
2019-04-25T09:30:24.106Z,8.40
2019-04-25T09:32:53.394Z,7.17
2019-04-25T09:35:23.590Z,7.53
2019-04-25T09:37:53.537Z,12.13
2019-04-25T09:40:23.973Z,7.20
2019-04-25T09:42:53.705Z,6.50
2019-04-25T09:45:37.604Z,6.83
2019-04-25T09:48:24.707Z,6.93
2019-04-25T09:50:55.065Z,6.73
2019-04-25T09:53:24.308Z,7.37
2019-04-25T09:55:58.822Z,7.43
2019-04-25T09:58:48.157Z,6.37
2019-04-25T10:01:17.817Z,6.47
2019-04-25T10:03:47.348Z,6.73
2019-04-25T10:06:18.215Z,9.77
2019-04-25T10:08:47.499Z,5.17
2019-04-25T10:11:16.328Z,5.70
2019-04-25T10:13:48.114Z,6.07
2019-04-25T10:16:16.954Z,6.33
2019-04-25T10:18:45.894Z,6.17
2019-04-25T10:21:15.345Z,6.03
2019-04-25T10:23:46.477Z,7.37
2019-04-25T10:26:14.789Z,6.27
2019-04-25T10:28:45.031Z,6.20
2019-04-25T10:31:13.878Z,5.53
2019-04-25T10:33:45.296Z,5.00
2019-04-25T10:36:14.461Z,5.47
2019-04-25T10:38:46.297Z,5.57
2019-04-25T10:41:14.329Z,5.13
2019-04-25T10:43:44.020Z,6.53
2019-04-25T10:46:14.101Z,4.93
2019-04-25T10:48:43.977Z,5.23
2019-04-25T10:51:13.858Z,5.00
2019-04-25T10:53:45.418Z,5.20
2019-04-25T10:56:14.112Z,4.77
2019-04-25T10:58:44.487Z,5.00
2019-04-25T11:01:15.362Z,4.77
2019-04-25T11:03:48.983Z,4.70
2019-04-25T11:06:19.317Z,4.83
2019-04-25T11:08:49.092Z,4.90
2019-04-25T11:11:17.899Z,4.97
2019-04-25T11:13:46.729Z,4.77
2019-04-25T11:16:16.352Z,4.70
2019-04-25T11:18:46.346Z,6.57
2019-04-25T11:21:15.242Z,4.90
2019-04-25T11:23:46.272Z,5.30
2019-04-25T11:26:14.481Z,5.10
2019-04-25T11:28:45.337Z,6.03
2019-04-25T11:31:15.886Z,4.57
2019-04-25T11:33:44.761Z,4.53
2019-04-25T11:36:13.679Z,5.13
2019-04-25T11:39:00.320Z,5.07
2019-04-25T11:41:29.035Z,4.50
2019-04-25T11:44:00.365Z,4.30
2019-04-25T11:46:29.105Z,4.70
2019-04-25T11:48:57.842Z,4.37
2019-04-25T11:51:26.552Z,4.10
2019-04-25T11:53:55.612Z,4.07
2019-04-25T11:56:24.351Z,3.77
2019-04-25T11:58:54.174Z,4.13
2019-04-25T12:01:24.335Z,4.53
2019-04-25T12:03:54.832Z,4.80
2019-04-25T12:06:24.387Z,5.20
2019-04-25T12:08:55.319Z,4.33
2019-04-25T12:11:24.658Z,3.83
2019-04-25T12:13:54.199Z,4.07
2019-04-25T12:16:24.762Z,4.10
2019-04-25T12:18:56.107Z,4.33
2019-04-25T12:21:24.089Z,3.97
2019-04-25T12:23:52.839Z,4.57
2019-04-25T12:26:24.299Z,4.00
2019-04-25T12:28:54.530Z,4.07
2019-04-25T12:31:23.822Z,4.30
2019-04-25T12:33:54.791Z,5.43
2019-04-25T12:36:24.004Z,4.33
2019-04-25T12:38:54.581Z,4.50
2019-04-25T12:41:24.269Z,4.23
2019-04-25T12:44:10.832Z,4.27
2019-04-25T12:46:43.834Z,4.27
2019-04-25T12:49:13.114Z,3.90
2019-04-25T12:51:43.093Z,4.80
2019-04-25T12:54:11.812Z,4.70
2019-04-25T12:56:40.697Z,4.73
2019-04-25T12:59:09.656Z,4.37
2019-04-25T13:01:38.384Z,4.60
2019-04-25T13:04:07.308Z,5.23
2019-04-25T13:06:36.847Z,4.03
2019-04-25T13:09:07.142Z,5.20
2019-04-25T13:11:35.977Z,6.77
2019-04-25T13:14:04.847Z,5.17
2019-04-25T13:16:34.239Z,4.53
2019-04-25T13:19:13.588Z,5.17
2019-04-25T13:21:34.482Z,4.80
2019-04-25T13:24:03.209Z,4.23
2019-04-25T13:26:33.735Z,4.23
2019-04-25T13:29:16.044Z,6.77
2019-04-25T13:32:04.853Z,4.97
2019-04-25T13:34:38.110Z,4.97
2019-04-25T13:37:07.335Z,5.07
2019-04-25T13:39:36.062Z,4.77
2019-04-25T13:42:06.718Z,5.00
2019-04-25T13:44:35.653Z,5.40
2019-04-25T13:47:04.374Z,5.43
2019-04-25T13:49:33.293Z,4.47
2019-04-25T13:52:02.325Z,5.00
2019-04-25T13:54:31.429Z,5.33
2019-04-25T13:57:00.230Z,4.90
2019-04-25T13:59:28.965Z,6.07
2019-04-25T14:01:57.935Z,5.80
2019-04-25T14:04:28.042Z,5.73
2019-04-25T14:06:56.993Z,5.13
2019-04-25T14:09:27.518Z,6.20
2019-04-25T14:11:56.399Z,5.40
2019-04-25T14:14:25.136Z,5.23
2019-04-25T14:17:04.954Z,5.20
2019-04-25T14:19:34.818Z,5.80
2019-04-25T14:22:05.083Z,5.50
2019-04-25T14:24:35.684Z,5.93
2019-04-25T14:27:04.640Z,5.87
2019-04-25T14:29:33.372Z,6.30
2019-04-25T14:32:03.296Z,5.77
2019-04-25T14:34:33.706Z,6.03
2019-04-25T14:37:02.746Z,6.00
2019-04-25T14:39:31.566Z,5.63
2019-04-25T14:42:00.308Z,5.40
2019-04-25T14:44:29.059Z,5.50
2019-04-25T14:46:57.841Z,5.60
2019-04-25T14:49:26.581Z,5.67
2019-04-25T14:51:55.315Z,5.97
2019-04-25T14:54:28.548Z,5.37
2019-04-25T14:57:01.492Z,6.63
2019-04-25T14:59:30.397Z,5.30
2019-04-25T15:01:59.448Z,5.70
2019-04-25T15:04:28.184Z,6.00
2019-04-25T15:06:56.915Z,5.77
2019-04-25T15:09:26.795Z,5.80
2019-04-25T15:11:55.614Z,5.70
2019-04-25T15:14:24.859Z,5.40
2019-04-25T15:16:53.613Z,5.40
2019-04-25T15:19:23.104Z,5.50
2019-04-25T15:21:52.748Z,5.40
2019-04-25T15:24:22.999Z,5.77
2019-04-25T15:26:52.613Z,5.10
2019-04-25T15:29:21.336Z,5.20
2019-04-25T15:31:56.116Z,5.03
2019-04-25T15:34:22.451Z,5.03
2019-04-25T15:36:55.607Z,5.57
2019-04-25T15:39:28.937Z,4.73
2019-04-25T15:42:00.241Z,4.43
2019-04-25T15:44:30.870Z,4.80
2019-04-25T15:47:01.424Z,4.77
2019-04-25T15:49:32.806Z,4.53
2019-04-25T15:52:01.710Z,4.60
2019-04-25T15:54:30.441Z,4.63
2019-04-25T15:57:00.653Z,4.67
2019-04-25T15:59:30.714Z,5.17
2019-04-25T16:02:07.900Z,4.13
2019-04-25T16:04:30.447Z,4.53
2019-04-25T16:07:00.856Z,4.73
2019-04-25T16:09:29.842Z,5.50
2019-04-25T16:11:58.653Z,5.00
2019-04-25T16:14:28.309Z,5.57
2019-04-25T16:16:57.121Z,5.37
2019-04-25T16:19:25.981Z,5.30
2019-04-25T16:21:54.744Z,5.07
2019-04-25T16:24:23.446Z,5.03
2019-04-25T16:26:52.509Z,5.87
2019-04-25T16:29:21.233Z,5.60
2019-04-25T16:31:49.958Z,5.43
2019-04-25T16:34:18.886Z,5.13
2019-04-25T16:36:47.690Z,6.23
2019-04-25T16:39:20.746Z,5.40
2019-04-25T16:41:49.559Z,5.37
2019-04-25T16:44:22.441Z,6.80
2019-04-25T16:46:51.171Z,6.07
2019-04-25T16:49:21.337Z,6.10
2019-04-25T16:51:50.055Z,6.03
2019-04-25T16:54:18.775Z,6.07
2019-04-25T16:56:47.574Z,6.30
2019-04-25T16:59:16.299Z,6.97
2019-04-25T17:01:45.121Z,6.40
2019-04-25T17:04:13.968Z,5.87
2019-04-25T17:06:42.699Z,6.73
2019-04-25T17:09:14.429Z,6.13
2019-04-25T17:11:43.392Z,6.50
2019-04-25T17:14:25.887Z,6.70
2019-04-25T17:16:56.250Z,6.57
2019-04-25T17:19:26.555Z,7.33
2019-04-25T17:21:55.279Z,9.23
2019-04-25T17:24:24.089Z,8.20
2019-04-25T17:26:52.825Z,6.53
2019-04-25T17:29:21.664Z,6.33
2019-04-25T17:31:57.509Z,7.23
2019-04-25T17:34:27.817Z,7.20
2019-04-25T17:37:15.936Z,9.03
2019-04-25T17:39:48.992Z,10.50
2019-04-25T17:42:17.820Z,11.50
2019-04-25T17:44:46.687Z,12.10
2019-04-25T17:47:15.415Z,11.80
2019-04-25T17:49:44.426Z,10.87
2019-04-25T17:52:13.210Z,9.67
2019-04-25T17:54:42.988Z,9.73
2019-04-25T17:57:11.890Z,10.23
2019-04-25T17:59:41.277Z,10.37
2019-04-25T18:02:10.182Z,10.60
2019-04-25T18:04:42.540Z,11.57
2019-04-25T18:07:11.528Z,11.87
2019-04-25T18:09:40.857Z,12.07
2019-04-25T18:12:11.014Z,11.90
2019-04-25T18:14:40.686Z,11.40
2019-04-25T18:17:10.996Z,10.10
2019-04-25T18:19:43.211Z,9.67
2019-04-25T18:22:25.616Z,9.67
2019-04-25T18:24:58.881Z,9.23
2019-04-25T18:27:29.181Z,8.17
2019-04-25T18:29:58.028Z,8.80
2019-04-25T18:32:28.333Z,8.47
2019-04-25T18:34:58.620Z,8.70
2019-04-25T18:37:35.075Z,8.50
2019-04-25T18:40:18.890Z,9.03
2019-04-25T18:42:49.320Z,8.53
2019-04-25T18:45:19.615Z,8.90
2019-04-25T18:47:48.377Z,9.07
2019-04-25T18:50:19.626Z,7.80
2019-04-25T18:53:02.168Z,8.43
2019-04-25T18:55:41.730Z,7.90
2019-04-25T18:58:15.204Z,8.63
2019-04-25T19:00:45.817Z,9.10
2019-04-25T19:03:32.772Z,8.77
2019-04-25T19:06:03.073Z,8.63
2019-04-25T19:08:31.838Z,8.00
2019-04-25T19:11:00.827Z,8.17
2019-04-25T19:13:29.532Z,8.60
2019-04-25T19:15:58.256Z,8.07
2019-04-25T19:18:27.035Z,7.63
2019-04-25T19:20:55.768Z,8.80
2019-04-25T19:23:24.495Z,9.43
2019-04-25T19:25:53.352Z,9.63
2019-04-25T19:28:22.087Z,8.70
2019-04-25T19:30:51.396Z,9.57
2019-04-25T19:33:21.950Z,11.10
2019-04-25T19:35:50.701Z,11.43
2019-04-25T19:38:19.418Z,12.07
2019-04-25T19:40:55.890Z,12.67
2019-04-25T19:43:38.057Z,11.13
2019-04-25T19:46:06.916Z,11.80
2019-04-25T19:48:35.925Z,9.70
2019-04-25T19:51:04.736Z,10.50
2019-04-25T19:53:33.648Z,10.07
2019-04-25T19:56:02.436Z,9.63
2019-04-25T19:58:31.182Z,9.57
2019-04-25T20:00:59.946Z,9.27
2019-04-25T20:03:30.263Z,9.27
2019-04-25T20:06:00.564Z,8.70
2019-04-25T20:08:33.920Z,10.97
2019-04-25T20:11:13.213Z,8.47
2019-04-25T20:13:42.835Z,9.20
2019-04-25T20:16:12.965Z,8.97
2019-04-25T20:18:41.689Z,8.10
2019-04-25T20:21:10.646Z,9.60
2019-04-25T20:23:39.375Z,9.13
2019-04-25T20:26:08.100Z,9.17
2019-04-25T20:28:36.951Z,9.20
2019-04-25T20:31:05.679Z,8.93
2019-04-25T20:33:34.416Z,9.30
2019-04-25T20:36:17.068Z,9.10
2019-04-25T20:38:35.116Z,9.13
2019-04-25T20:41:03.862Z,10.17
2019-04-25T20:43:32.635Z,9.50
2019-04-25T20:46:01.465Z,9.73
2019-04-25T20:48:30.197Z,9.33
2019-04-25T20:50:59.838Z,9.10
2019-04-25T20:53:28.558Z,9.80
2019-04-25T20:55:57.292Z,9.60
2019-04-25T20:58:26.139Z,9.17
2019-04-25T21:00:56.449Z,9.97
2019-04-25T21:03:28.200Z,11.10
2019-04-25T21:05:58.745Z,10.20
2019-04-25T21:08:27.473Z,9.93
2019-04-25T21:10:56.215Z,11.10
2019-04-25T21:13:26.670Z,10.10
2019-04-25T21:16:13.354Z,10.73
2019-04-25T21:18:43.779Z,10.77
2019-04-25T21:21:12.514Z,11.90
2019-04-25T21:23:41.249Z,11.70
2019-04-25T21:26:11.251Z,12.10
2019-04-25T21:28:39.978Z,13.40
2019-04-25T21:31:08.727Z,13.80
2019-04-25T21:33:37.616Z,11.77
2019-04-25T21:36:06.725Z,12.73
2019-04-25T21:38:35.741Z,12.10
2019-04-25T21:41:18.349Z,13.03
2019-04-25T21:43:51.786Z,13.43
2019-04-25T21:46:21.697Z,13.67
2019-04-25T21:48:50.761Z,13.83
2019-04-25T21:51:31.643Z,14.27
2019-04-25T21:54:01.587Z,11.30
2019-04-25T21:56:30.700Z,12.13
2019-04-25T21:58:59.834Z,10.87
2019-04-25T22:01:34.163Z,10.40
2019-04-25T22:04:02.964Z,10.70
2019-04-25T22:06:32.027Z,9.80
2019-04-25T22:09:01.552Z,8.90
2019-04-25T22:11:30.245Z,8.00
2019-04-25T22:13:59.507Z,8.43
2019-04-25T22:16:28.554Z,9.93
2019-04-25T22:18:57.659Z,7.90
2019-04-25T22:21:37.468Z,8.60
2019-04-25T22:24:05.948Z,8.23
2019-04-25T22:26:27.607Z,9.40
2019-04-25T22:28:56.818Z,7.87
2019-04-25T22:31:28.180Z,8.40
2019-04-25T22:34:01.650Z,7.47
2019-04-25T22:36:30.658Z,7.43
2019-04-25T22:39:11.703Z,7.83
2019-04-25T22:41:46.636Z,7.60
2019-04-25T22:44:15.492Z,7.60
2019-04-25T22:46:45.414Z,7.63
2019-04-25T22:49:14.204Z,6.87
2019-04-25T22:51:42.896Z,7.13
2019-04-25T22:54:12.230Z,7.40
2019-04-25T22:56:41.012Z,7.77
2019-04-25T22:59:10.877Z,7.60
2019-04-25T23:01:53.799Z,7.77
2019-04-25T23:04:27.289Z,6.47
2019-04-25T23:06:56.013Z,7.17
2019-04-25T23:09:25.171Z,6.43
2019-04-25T23:11:54.080Z,7.07
2019-04-25T23:14:24.474Z,6.03
2019-04-25T23:16:53.683Z,6.73
2019-04-25T23:19:22.409Z,6.33
2019-04-25T23:21:51.512Z,6.70
2019-04-25T23:24:21.849Z,6.50
2019-04-25T23:26:55.451Z,7.70
2019-04-25T23:29:24.193Z,6.87
2019-04-25T23:31:53.000Z,7.00
2019-04-25T23:34:22.046Z,6.73
2019-04-25T23:36:50.797Z,6.70
2019-04-25T23:39:19.937Z,6.37
2019-04-25T23:41:48.665Z,6.73
2019-04-25T23:44:18.559Z,6.70
2019-04-25T23:46:47.800Z,6.47
2019-04-25T23:49:16.996Z,7.03
2019-04-25T23:51:46.038Z,6.40
2019-04-25T23:54:15.091Z,6.50
2019-04-25T23:56:43.930Z,7.03
2019-04-25T23:59:13.549Z,7.23
